createdAt,value
2022-08-29T00:00:18.228Z,99.26
2022-08-29T00:02:49.506Z,99.61
2022-08-29T00:05:17.394Z,99.76
2022-08-29T00:07:43.886Z,100.00
2022-08-29T00:10:10.424Z,100.00
2022-08-29T00:12:37.079Z,100.00
2022-08-29T00:15:05.566Z,100.00
2022-08-29T00:17:32.645Z,100.00
2022-08-29T00:19:59.254Z,100.00
2022-08-29T00:22:25.736Z,100.00
2022-08-29T00:24:52.205Z,100.00
2022-08-29T00:27:18.709Z,100.00
2022-08-29T00:29:45.177Z,100.00
2022-08-29T00:32:11.680Z,100.00
2022-08-29T00:34:38.171Z,100.00
2022-08-29T00:37:04.637Z,100.00
2022-08-29T00:39:32.974Z,100.00
2022-08-29T00:41:59.567Z,100.00
2022-08-29T00:44:26.825Z,100.00
2022-08-29T00:46:55.994Z,100.00
2022-08-29T00:49:30.643Z,100.00
2022-08-29T00:51:58.219Z,100.00
2022-08-29T00:54:25.305Z,100.00
2022-08-29T00:56:52.445Z,100.00
2022-08-29T00:59:22.996Z,100.00
2022-08-29T01:01:52.567Z,100.00
2022-08-29T01:04:24.028Z,100.00
2022-08-29T01:06:51.072Z,100.00
2022-08-29T01:09:17.630Z,100.00
2022-08-29T01:12:02.908Z,100.00
2022-08-29T01:14:29.557Z,100.00
2022-08-29T01:16:57.700Z,100.00
2022-08-29T01:19:31.835Z,100.00
2022-08-29T01:22:20.117Z,100.00
2022-08-29T01:24:50.842Z,100.00
2022-08-29T01:27:19.135Z,100.00
2022-08-29T01:29:45.571Z,100.00
2022-08-29T01:32:13.003Z,100.00
2022-08-29T01:34:39.714Z,100.00
2022-08-29T01:37:07.110Z,100.00
2022-08-29T01:39:38.573Z,100.00
2022-08-29T01:42:10.585Z,100.00
2022-08-29T01:44:37.603Z,100.00
2022-08-29T01:47:04.979Z,100.00
2022-08-29T01:49:33.476Z,100.00
2022-08-29T01:52:00.514Z,100.00
2022-08-29T01:54:28.718Z,100.00
2022-08-29T01:56:55.239Z,100.00
2022-08-29T01:59:23.769Z,100.00
2022-08-29T02:01:54.154Z,100.00
2022-08-29T02:04:20.711Z,100.00
2022-08-29T02:06:47.166Z,100.00
2022-08-29T02:09:13.634Z,100.00
2022-08-29T02:11:40.505Z,100.00
2022-08-29T02:14:07.196Z,100.00
2022-08-29T02:16:33.857Z,100.00
2022-08-29T02:19:00.390Z,100.00
2022-08-29T02:21:28.128Z,100.00
2022-08-29T02:23:55.773Z,100.00
2022-08-29T02:26:22.731Z,100.00
2022-08-29T02:28:51.895Z,100.00
2022-08-29T02:31:19.858Z,100.00
2022-08-29T02:33:46.746Z,100.00
2022-08-29T02:36:13.692Z,100.00
2022-08-29T02:38:41.141Z,100.00
2022-08-29T02:41:11.236Z,100.00
2022-08-29T02:43:40.164Z,100.00
2022-08-29T02:46:07.108Z,100.00
2022-08-29T02:48:33.578Z,100.00
2022-08-29T02:51:00.130Z,100.00
2022-08-29T02:53:28.506Z,100.00
2022-08-29T02:55:54.979Z,100.00
2022-08-29T02:58:22.200Z,100.00
2022-08-29T03:00:48.783Z,100.00
2022-08-29T03:03:15.361Z,100.00
2022-08-29T03:05:42.313Z,100.00
2022-08-29T03:08:10.678Z,100.00
2022-08-29T03:10:37.359Z,100.00
2022-08-29T03:13:04.195Z,100.00
2022-08-29T03:15:30.833Z,100.00
2022-08-29T03:17:58.354Z,100.00
2022-08-29T03:20:25.416Z,100.00
2022-08-29T03:22:54.111Z,100.00
2022-08-29T03:25:21.404Z,100.00
2022-08-29T03:27:47.991Z,100.00
2022-08-29T03:30:16.248Z,100.00
2022-08-29T03:32:43.402Z,100.00
2022-08-29T03:35:11.142Z,100.00
2022-08-29T03:37:37.718Z,100.00
2022-08-29T03:40:05.669Z,100.00
2022-08-29T03:42:32.240Z,100.00
2022-08-29T03:44:58.747Z,100.00
2022-08-29T03:47:25.241Z,100.00
2022-08-29T03:49:51.731Z,100.00
2022-08-29T03:52:18.212Z,100.00
2022-08-29T03:54:44.691Z,100.00
2022-08-29T03:57:11.955Z,100.00
2022-08-29T03:59:38.426Z,100.00
2022-08-29T04:02:05.160Z,100.00
2022-08-29T04:04:50.240Z,100.00
2022-08-29T04:07:17.751Z,100.00
2022-08-29T04:09:44.558Z,100.00
2022-08-29T04:12:12.044Z,100.00
2022-08-29T04:14:38.919Z,100.00
2022-08-29T04:17:05.395Z,100.00
2022-08-29T04:19:32.094Z,100.00
2022-08-29T04:21:58.646Z,100.00
2022-08-29T04:24:25.687Z,100.00
2022-08-29T04:26:52.180Z,100.00
2022-08-29T04:29:18.851Z,100.00
2022-08-29T04:31:45.419Z,100.00
2022-08-29T04:34:12.847Z,100.00
2022-08-29T04:36:41.801Z,100.00
2022-08-29T04:39:11.979Z,100.00
2022-08-29T04:41:40.529Z,100.00
2022-08-29T04:44:08.297Z,100.00
2022-08-29T04:46:35.307Z,100.00
2022-08-29T04:49:04.295Z,100.00
2022-08-29T04:51:32.045Z,100.00
2022-08-29T04:53:58.603Z,100.00
2022-08-29T04:56:25.057Z,99.15
2022-08-29T04:58:52.154Z,96.66
2022-08-29T05:01:21.019Z,95.85
2022-08-29T05:03:48.234Z,95.09
2022-08-29T05:06:15.830Z,92.44
2022-08-29T05:08:45.860Z,89.22
2022-08-29T05:11:22.558Z,85.00
2022-08-29T05:13:49.985Z,79.58
2022-08-29T05:16:17.228Z,76.87
2022-08-29T05:18:44.417Z,74.02
2022-08-29T05:21:11.224Z,71.25
2022-08-29T05:23:38.403Z,69.37
2022-08-29T05:26:05.297Z,67.84
2022-08-29T05:28:33.178Z,64.27
2022-08-29T05:31:00.342Z,60.45
2022-08-29T05:33:27.545Z,61.86
2022-08-29T05:35:54.080Z,59.01
2022-08-29T05:38:20.562Z,56.62
2022-08-29T05:40:47.068Z,53.89
2022-08-29T05:43:13.636Z,51.50
2022-08-29T05:45:41.388Z,51.76
2022-08-29T05:48:09.650Z,53.69
2022-08-29T05:50:41.898Z,49.18
2022-08-29T05:53:13.103Z,48.22
2022-08-29T05:55:40.885Z,52.33
2022-08-29T05:58:07.513Z,49.04
2022-08-29T06:00:34.097Z,49.50
2022-08-29T06:03:01.310Z,48.22
2022-08-29T06:05:27.926Z,46.79
2022-08-29T06:07:54.406Z,45.23
2022-08-29T06:10:20.910Z,44.81
2022-08-29T06:12:47.383Z,46.78
2022-08-29T06:15:14.044Z,43.29
2022-08-29T06:17:40.622Z,41.48
2022-08-29T06:20:09.571Z,40.95
2022-08-29T06:22:40.246Z,39.91
2022-08-29T06:25:34.947Z,39.77
2022-08-29T06:27:56.903Z,38.70
2022-08-29T06:30:23.389Z,40.77
2022-08-29T06:32:49.915Z,45.63
2022-08-29T06:35:16.445Z,42.44
2022-08-29T06:37:42.994Z,42.50
2022-08-29T06:40:09.707Z,42.72
2022-08-29T06:42:36.290Z,42.05
2022-08-29T06:45:02.911Z,46.22
2022-08-29T06:47:29.420Z,41.32
2022-08-29T06:49:55.860Z,39.59
2022-08-29T06:52:22.307Z,39.44
2022-08-29T06:54:48.745Z,41.52
2022-08-29T06:57:15.196Z,41.29
2022-08-29T06:59:41.643Z,41.69
2022-08-29T07:02:08.206Z,39.57
2022-08-29T07:04:34.748Z,38.68
2022-08-29T07:07:01.694Z,37.51
2022-08-29T07:09:31.009Z,42.90
2022-08-29T07:11:57.544Z,42.15
2022-08-29T07:14:24.043Z,48.67
2022-08-29T07:16:50.519Z,46.34
2022-08-29T07:19:17.092Z,47.42
2022-08-29T07:21:43.588Z,48.67
2022-08-29T07:24:10.090Z,48.99
2022-08-29T07:26:41.395Z,53.86
2022-08-29T07:29:11.050Z,49.63
2022-08-29T07:31:39.138Z,50.66
2022-08-29T07:34:05.952Z,51.88
2022-08-29T07:36:34.286Z,49.39
2022-08-29T07:39:01.502Z,46.51
2022-08-29T07:41:28.647Z,50.79
2022-08-29T07:43:55.124Z,50.97
2022-08-29T07:46:21.777Z,51.95
2022-08-29T07:48:48.477Z,52.22
2022-08-29T07:51:16.227Z,51.32
2022-08-29T07:53:42.809Z,50.67
2022-08-29T07:56:10.545Z,50.50
2022-08-29T07:58:37.074Z,52.40
2022-08-29T08:01:04.199Z,53.48
2022-08-29T08:03:31.266Z,50.75
2022-08-29T08:05:57.817Z,55.09
2022-08-29T08:08:24.330Z,55.19
2022-08-29T08:10:52.342Z,53.91
2022-08-29T08:13:19.537Z,51.81
2022-08-29T08:15:46.096Z,49.71
2022-08-29T08:18:16.473Z,49.99
2022-08-29T08:20:48.401Z,49.74
2022-08-29T08:23:16.110Z,52.04
2022-08-29T08:25:43.340Z,49.94
2022-08-29T08:28:10.217Z,52.90
2022-08-29T08:30:36.738Z,51.76
2022-08-29T08:33:04.118Z,53.22
2022-08-29T08:35:33.795Z,53.83
2022-08-29T08:38:01.962Z,57.56
2022-08-29T08:40:28.819Z,56.25
2022-08-29T08:42:58.571Z,55.82
2022-08-29T08:45:33.488Z,57.20
2022-08-29T08:48:05.953Z,54.44
2022-08-29T08:50:54.610Z,55.32
2022-08-29T08:53:23.388Z,56.04
2022-08-29T08:55:59.954Z,57.48
2022-08-29T08:58:42.330Z,54.06
2022-08-29T09:01:08.822Z,53.16
2022-08-29T09:03:38.586Z,52.34
2022-08-29T09:06:20.481Z,56.56
2022-08-29T09:08:51.912Z,60.61
2022-08-29T09:11:33.463Z,55.80
2022-08-29T09:13:59.982Z,58.09
2022-08-29T09:16:36.157Z,55.53
2022-08-29T09:19:04.501Z,52.28
2022-08-29T09:21:40.935Z,52.43
2022-08-29T09:24:11.055Z,54.56
2022-08-29T09:26:37.521Z,53.17
2022-08-29T09:29:04.045Z,51.52
2022-08-29T09:31:33.249Z,52.26
2022-08-29T09:34:05.158Z,53.88
2022-08-29T09:36:37.704Z,54.92
2022-08-29T09:39:22.954Z,53.28
2022-08-29T09:41:53.754Z,52.01
2022-08-29T09:44:40.446Z,50.12
2022-08-29T09:47:09.931Z,52.08
2022-08-29T09:49:38.521Z,54.68
2022-08-29T09:52:09.634Z,55.77
2022-08-29T09:54:36.122Z,56.33
2022-08-29T09:57:09.971Z,57.24
2022-08-29T09:59:38.105Z,56.43
2022-08-29T10:02:26.953Z,54.08
2022-08-29T10:04:55.419Z,53.67
2022-08-29T10:07:23.878Z,51.59
2022-08-29T10:09:55.020Z,56.00
2022-08-29T10:12:42.790Z,52.98
2022-08-29T10:15:27.965Z,55.76
2022-08-29T10:18:23.954Z,50.36
2022-08-29T10:20:52.909Z,50.35
2022-08-29T10:23:25.382Z,53.63
2022-08-29T10:25:51.967Z,52.21
2022-08-29T10:28:28.086Z,54.05
2022-08-29T10:30:58.251Z,51.15
2022-08-29T10:33:44.941Z,50.01
2022-08-29T10:36:11.366Z,47.56
2022-08-29T10:38:49.964Z,51.54
2022-08-29T10:41:31.624Z,51.69
2022-08-29T10:44:01.420Z,47.95
2022-08-29T10:46:36.140Z,47.31
2022-08-29T10:49:08.616Z,46.79
2022-08-29T10:52:01.696Z,52.83
2022-08-29T10:54:52.083Z,47.45
2022-08-29T10:57:37.137Z,49.56
2022-08-29T11:00:09.034Z,50.90
2022-08-29T11:02:41.262Z,50.67
2022-08-29T11:05:11.268Z,50.40
2022-08-29T11:07:42.205Z,54.80
2022-08-29T11:10:20.439Z,56.46
2022-08-29T11:12:58.400Z,54.51
2022-08-29T11:15:28.183Z,57.10
2022-08-29T11:18:01.945Z,54.78
2022-08-29T11:20:35.755Z,53.26
2022-08-29T11:23:02.181Z,55.09
2022-08-29T11:25:29.907Z,54.30
2022-08-29T11:28:35.987Z,56.35
2022-08-29T11:31:12.879Z,56.62
2022-08-29T11:33:46.680Z,56.75
2022-08-29T11:36:15.445Z,55.90
2022-08-29T11:38:42.701Z,55.33
2022-08-29T11:41:28.922Z,56.00
2022-08-29T11:43:58.816Z,55.95
2022-08-29T11:46:49.075Z,55.84
2022-08-29T11:49:24.334Z,55.05
2022-08-29T11:51:56.416Z,54.60
2022-08-29T11:54:28.870Z,54.80
2022-08-29T11:56:58.504Z,55.28
2022-08-29T11:59:44.371Z,56.47
2022-08-29T12:02:30.828Z,53.47
2022-08-29T12:05:00.398Z,51.61
2022-08-29T12:07:34.911Z,53.00
2022-08-29T12:10:03.628Z,52.12
2022-08-29T12:12:37.543Z,52.89
2022-08-29T12:15:22.523Z,50.45
2022-08-29T12:19:47.107Z,46.58
2022-08-29T12:22:32.787Z,47.38
2022-08-29T12:25:19.213Z,48.39
2022-08-29T12:28:03.967Z,44.26
2022-08-29T12:30:40.471Z,44.08
2022-08-29T12:33:25.395Z,43.95
2022-08-29T12:36:02.076Z,42.10
2022-08-29T12:38:50.458Z,40.78
2022-08-29T12:41:47.107Z,41.47
2022-08-29T12:44:16.630Z,41.51
2022-08-29T12:46:44.613Z,42.00
2022-08-29T12:49:25.513Z,43.64
2022-08-29T12:51:56.899Z,48.35
2022-08-29T12:54:34.322Z,46.32
2022-08-29T12:57:02.087Z,45.16
2022-08-29T12:59:29.329Z,43.83
2022-08-29T13:01:56.895Z,40.90
2022-08-29T13:04:24.741Z,42.63
2022-08-29T13:06:58.719Z,41.40
2022-08-29T13:09:28.668Z,43.00
2022-08-29T13:12:15.705Z,42.51
2022-08-29T13:15:03.647Z,42.37
2022-08-29T13:17:35.230Z,41.03
2022-08-29T13:20:40.465Z,40.72
2022-08-29T13:23:10.287Z,43.42
2022-08-29T13:25:43.775Z,46.95
2022-08-29T13:28:14.727Z,47.13
2022-08-29T13:30:41.811Z,46.21
2022-08-29T13:33:27.905Z,43.86
2022-08-29T13:36:02.039Z,43.55
2022-08-29T13:38:29.947Z,42.04
2022-08-29T13:40:59.765Z,45.65
2022-08-29T13:43:34.133Z,43.90
2022-08-29T13:46:02.246Z,44.13
2022-08-29T13:48:29.129Z,43.14
2022-08-29T13:50:55.602Z,42.88
2022-08-29T13:53:22.085Z,42.42
2022-08-29T13:55:48.581Z,42.95
2022-08-29T13:58:17.953Z,41.91
2022-08-29T14:00:44.516Z,41.92
2022-08-29T14:03:16.631Z,41.51
2022-08-29T14:05:43.473Z,41.13
2022-08-29T14:08:10.753Z,42.83
2022-08-29T14:10:37.612Z,43.41
2022-08-29T14:13:05.060Z,43.28
2022-08-29T14:15:31.931Z,42.21
2022-08-29T14:17:58.586Z,45.12
2022-08-29T14:20:25.094Z,43.95
2022-08-29T14:22:51.620Z,44.77
2022-08-29T14:25:19.791Z,44.79
2022-08-29T14:27:47.552Z,43.74
2022-08-29T14:30:15.370Z,42.49
2022-08-29T14:32:41.909Z,42.82
2022-08-29T14:35:09.140Z,43.64
2022-08-29T14:37:35.758Z,42.87
2022-08-29T14:40:02.493Z,45.03
2022-08-29T14:42:30.333Z,44.60
2022-08-29T14:44:56.809Z,44.00
2022-08-29T14:47:23.336Z,43.66
2022-08-29T14:49:49.825Z,44.67
2022-08-29T14:52:16.572Z,44.99
2022-08-29T14:54:43.195Z,45.07
2022-08-29T14:57:10.105Z,46.20
2022-08-29T14:59:36.601Z,46.83
2022-08-29T15:02:03.788Z,48.06
2022-08-29T15:04:36.608Z,47.93
2022-08-29T15:07:08.463Z,48.33
2022-08-29T15:09:35.007Z,47.87
2022-08-29T15:12:01.553Z,48.20
2022-08-29T15:14:28.019Z,48.16
2022-08-29T15:16:54.468Z,48.48
2022-08-29T15:22:08.388Z,48.56
2022-08-29T15:24:35.032Z,47.67
2022-08-29T15:27:01.508Z,47.87
2022-08-29T15:29:28.733Z,48.50
2022-08-29T15:31:57.378Z,48.89
2022-08-29T15:34:24.860Z,47.88
2022-08-29T15:36:51.825Z,49.48
2022-08-29T15:39:18.357Z,49.40
2022-08-29T15:41:44.800Z,49.29
2022-08-29T15:44:11.258Z,49.63
2022-08-29T15:46:38.228Z,50.27
2022-08-29T15:49:06.199Z,48.97
2022-08-29T15:51:33.092Z,49.95
2022-08-29T15:53:59.557Z,49.30
2022-08-29T15:56:26.043Z,50.36
2022-08-29T15:58:52.789Z,52.93
2022-08-29T16:01:19.288Z,55.97
2022-08-29T16:03:45.788Z,58.24
2022-08-29T16:06:12.245Z,58.94
2022-08-29T16:08:38.957Z,59.44
2022-08-29T16:11:12.617Z,59.31
2022-08-29T16:13:39.100Z,59.74
2022-08-29T16:16:05.684Z,60.52
2022-08-29T16:18:32.159Z,61.80
2022-08-29T16:20:58.612Z,61.72
2022-08-29T16:23:25.113Z,61.92
2022-08-29T16:25:51.583Z,63.29
2022-08-29T16:28:18.890Z,65.24
2022-08-29T16:30:46.325Z,64.76
2022-08-29T16:33:13.543Z,65.60
2022-08-29T16:35:39.986Z,66.50
2022-08-29T16:38:06.475Z,66.61
2022-08-29T16:40:33.030Z,65.81
2022-08-29T16:43:00.230Z,66.45
2022-08-29T16:45:26.682Z,66.45
2022-08-29T16:47:57.432Z,67.40
2022-08-29T16:50:24.787Z,66.33
2022-08-29T16:52:51.232Z,67.16
2022-08-29T16:55:17.717Z,67.56
2022-08-29T16:58:04.129Z,68.15
2022-08-29T17:00:31.019Z,68.85
2022-08-29T17:02:57.546Z,70.30
2022-08-29T17:05:24.566Z,71.47
2022-08-29T17:07:50.971Z,71.11
2022-08-29T17:10:17.388Z,71.25
2022-08-29T17:12:43.771Z,71.68
2022-08-29T17:15:10.171Z,71.14
2022-08-29T17:17:36.606Z,71.19
2022-08-29T17:20:03.599Z,70.97
2022-08-29T17:22:30.030Z,71.24
2022-08-29T17:24:56.481Z,70.89
2022-08-29T17:27:25.759Z,70.07
2022-08-29T17:29:55.892Z,70.60
2022-08-29T17:32:23.031Z,69.80
2022-08-29T17:34:50.388Z,70.81
2022-08-29T17:37:16.932Z,70.26
2022-08-29T17:39:43.508Z,70.41
2022-08-29T17:42:10.132Z,71.25
2022-08-29T17:44:36.644Z,70.82
2022-08-29T17:47:03.161Z,71.17
2022-08-29T17:49:29.761Z,71.35
2022-08-29T17:51:56.300Z,71.66
2022-08-29T17:54:23.763Z,71.49
2022-08-29T17:56:57.583Z,71.15
2022-08-29T17:59:27.266Z,71.26
2022-08-29T18:01:54.416Z,70.49
2022-08-29T18:04:22.157Z,71.50
2022-08-29T18:06:48.804Z,71.59
2022-08-29T18:09:15.486Z,71.48
2022-08-29T18:11:44.082Z,70.92
2022-08-29T18:14:10.962Z,70.90
2022-08-29T18:16:37.661Z,71.48
2022-08-29T18:19:04.657Z,72.10
2022-08-29T18:21:31.864Z,71.96
2022-08-29T18:23:59.087Z,72.25
2022-08-29T18:26:26.731Z,72.35
2022-08-29T18:28:54.008Z,72.63
2022-08-29T18:31:20.748Z,73.06
2022-08-29T18:34:00.185Z,73.61
2022-08-29T18:36:28.105Z,74.33
2022-08-29T18:38:54.614Z,74.28
2022-08-29T18:41:21.138Z,75.36
2022-08-29T18:43:47.825Z,75.16
2022-08-29T18:46:14.432Z,74.69
2022-08-29T18:48:43.230Z,75.73
2022-08-29T18:51:09.695Z,76.02
2022-08-29T18:53:36.227Z,76.03
2022-08-29T18:56:02.848Z,76.16
2022-08-29T18:58:31.548Z,76.57
2022-08-29T19:00:58.781Z,76.95
2022-08-29T19:03:25.742Z,77.16
2022-08-29T19:05:52.551Z,78.20
2022-08-29T19:08:20.607Z,78.17
2022-08-29T19:10:47.425Z,78.59
2022-08-29T19:13:14.981Z,78.45
2022-08-29T19:15:42.236Z,78.51
2022-08-29T19:18:09.459Z,79.78
2022-08-29T19:20:54.799Z,80.89
2022-08-29T19:23:21.462Z,80.33
2022-08-29T19:25:48.707Z,81.05
2022-08-29T19:28:16.111Z,81.71
2022-08-29T19:30:43.018Z,83.18
2022-08-29T19:33:10.033Z,83.05
2022-08-29T19:35:38.458Z,82.77
2022-08-29T19:38:05.643Z,84.17
2022-08-29T19:40:35.677Z,85.07
2022-08-29T19:43:13.998Z,86.18
2022-08-29T19:45:42.242Z,85.21
2022-08-29T19:48:09.259Z,86.43
2022-08-29T19:50:41.595Z,86.30
2022-08-29T19:53:11.233Z,86.87
2022-08-29T19:55:39.184Z,86.70
2022-08-29T19:58:06.511Z,87.33
2022-08-29T20:00:33.478Z,87.18
2022-08-29T20:03:00.105Z,88.32
2022-08-29T20:05:26.789Z,88.06
2022-08-29T20:07:54.470Z,88.60
2022-08-29T20:10:22.910Z,88.82
2022-08-29T20:12:50.003Z,89.02
2022-08-29T20:15:16.771Z,89.75
2022-08-29T20:17:43.373Z,89.22
2022-08-29T20:20:12.696Z,88.80
2022-08-29T20:22:39.582Z,88.88
2022-08-29T20:25:06.666Z,88.84
2022-08-29T20:27:34.663Z,88.76
2022-08-29T20:30:01.263Z,88.53
2022-08-29T20:32:27.707Z,88.44
2022-08-29T20:34:54.174Z,89.01
2022-08-29T20:37:22.706Z,88.47
2022-08-29T20:39:49.263Z,88.78
2022-08-29T20:42:17.375Z,88.20
2022-08-29T20:44:45.389Z,88.06
2022-08-29T20:47:13.178Z,88.85
2022-08-29T20:49:42.778Z,89.63
2022-08-29T20:52:11.641Z,89.40
2022-08-29T20:54:38.948Z,89.61
2022-08-29T20:57:06.643Z,90.41
2022-08-29T20:59:35.132Z,91.27
2022-08-29T21:02:02.755Z,91.34
2022-08-29T21:04:48.103Z,91.54
2022-08-29T21:07:15.301Z,91.30
2022-08-29T21:09:45.568Z,91.50
2022-08-29T21:12:13.823Z,90.50
2022-08-29T21:14:40.578Z,91.04
2022-08-29T21:17:08.780Z,91.06
2022-08-29T21:19:35.293Z,91.08
2022-08-29T21:22:03.437Z,91.58
2022-08-29T21:24:30.481Z,91.45
2022-08-29T21:26:57.137Z,92.36
2022-08-29T21:29:23.796Z,92.48
2022-08-29T21:31:51.959Z,93.26
2022-08-29T21:34:18.932Z,93.17
2022-08-29T21:36:45.426Z,93.52
2022-08-29T21:39:12.936Z,93.46
2022-08-29T21:41:46.477Z,93.69
2022-08-29T21:44:14.383Z,93.04
2022-08-29T21:46:43.071Z,93.77
2022-08-29T21:49:11.259Z,93.23
2022-08-29T21:51:38.170Z,93.34
2022-08-29T21:54:04.933Z,92.79
2022-08-29T21:56:32.647Z,93.25
2022-08-29T21:58:59.981Z,94.03
2022-08-29T22:01:29.947Z,93.75
2022-08-29T22:04:00.249Z,93.75
2022-08-29T22:06:27.691Z,93.10
2022-08-29T22:08:55.182Z,92.69
2022-08-29T22:11:24.316Z,93.04
2022-08-29T22:14:04.437Z,92.75
2022-08-29T22:16:31.142Z,92.82
2022-08-29T22:19:12.178Z,94.03
2022-08-29T22:21:40.874Z,93.86
2022-08-29T22:24:07.507Z,93.99
2022-08-29T22:26:34.764Z,95.38
2022-08-29T22:29:01.278Z,95.35
2022-08-29T22:31:28.049Z,95.38
2022-08-29T22:33:54.612Z,95.32
2022-08-29T22:36:21.172Z,95.71
2022-08-29T22:38:47.784Z,95.92
2022-08-29T22:41:22.406Z,95.61
2022-08-29T22:43:52.382Z,96.16
2022-08-29T22:46:29.612Z,96.13
2022-08-29T22:48:56.102Z,96.48
2022-08-29T22:51:26.840Z,96.50
2022-08-29T22:54:12.192Z,97.05
2022-08-29T22:56:40.556Z,97.18
2022-08-29T22:59:07.397Z,97.72
2022-08-29T23:01:35.513Z,97.62
2022-08-29T23:04:02.075Z,97.32
2022-08-29T23:06:29.158Z,98.72
2022-08-29T23:08:55.939Z,98.73
2022-08-29T23:11:24.938Z,98.46
2022-08-29T23:13:52.084Z,98.34
2022-08-29T23:16:18.935Z,97.59
2022-08-29T23:18:45.437Z,98.27
2022-08-29T23:21:12.308Z,98.14
2022-08-29T23:23:39.896Z,98.40
2022-08-29T23:26:06.668Z,98.93
2022-08-29T23:28:34.370Z,98.76
2022-08-29T23:31:01.778Z,99.48
2022-08-29T23:33:29.432Z,99.40
2022-08-29T23:35:56.230Z,100.00
2022-08-29T23:38:23.018Z,100.00
2022-08-29T23:40:50.644Z,100.00
2022-08-29T23:43:17.941Z,100.00
2022-08-29T23:45:44.509Z,100.00
2022-08-29T23:48:10.954Z,100.00
2022-08-29T23:50:37.385Z,100.00
2022-08-29T23:53:04.032Z,100.00
2022-08-29T23:55:30.553Z,100.00
2022-08-29T23:57:57.108Z,100.00
